UTAK

Details ICAO UTAK (KRW)
Name TURKMENBASHI
Region Tajikistan, Turkmenistan and Uzbekistan
Timezone Asia/Ashgabat (UTC+5.0)
Plans Departing 25
Arriving 17
Stats Elevation 279 ft / 85 m (AMSL)
Location 40.063472° 53.007222°
Runways 1
Magnetic Variation 6.000° E
Sunrise 2017-12-15 03:44:11 UTC / 2017-12-15 08:44:11 Local
Sunset 2017-12-15 13:04:43 UTC / 2017-12-15 18:04:43 Local
Advertisement - Login to hide

Runways

ID Width Length Bearing (true) Bearing (mag) Surface Threshold Offset Overrun Length
16 144 ft / 44 m 8,221 ft / 2,506 m 166.91° 160.91° Concrete 0 ft / 0 m 0 ft / 0 m
34 144 ft / 44 m 8,221 ft / 2,506 m 346.91° 340.91° Concrete 0 ft / 0 m 0 ft / 0 m

Map

Weather


0- 5 10 15 20 25 30 35+ Temperature / ° C

Clouds and Precipitation
Forecast for 2017-12-15 06:00 UTC. Updated 2 hours ago

Ground ~20,000 ft ~40,000 ft Winds

METAR

UTAK 150200Z 10010KT CAVOK M03/M06 Q1022 R16R/CLRD70 NOSIG

TAF

TAF UTAK 142230Z 1500/1524 09014KT 3000 BR BKN006 BKN100 530006 TEMPO 1500/1504 VRB04KT 0500 FZFG VV001 BECMG 1504/1505 9999 NSW SCT020 SCT100 TEMPO 1506/1512 16014G24KT BKN010

Frequencies

Ground 121.70 MHz GND
Approach 120.00 MHz APP
Tower 124.00 MHz TWR
Warning: Do not use this data for real-world aviation or navigation. No guarantee of current accuracy is given.